PWSweather.com
Personal Weather Stations
Station Observations
WESTON01
WestonSuperMareGB BS22 8RT

WestonSuperMareGB BS22 8RT

Lat: 51.351508, Lon: -2.933373

Elevation: 15

Station Type: Fine Offset WH1080

http://www.westonweather.co.uk

High Low Average
Temperature 69.2°F20.7°C 54.6°F12.6°C 62.4°F16.9°C
Dew Point 60.5°F15.8°C 46.6°F8.1°C 56.2°F13.4°C
Winds 14.7 mph 23.7 kmh 0.3 mph 0.5 kmh 7.0 mph W11.3 kmh W
Wind Gusts 23.5 mph37.8 kmh 1.8 mph2.9 kmh 11.0 mph17.7 kmh
Humidity 89% 69% 80%
Pressure 30.21 in1023.0 mb 30.12 in1020.0 mb -
Precipitation 0.00 in0.0 mm - -
Hour Temp Dew Point Humidity Winds Wind Gusts Pressure Precip Precip Rate Daily Precip Total
12:00 AM 61.4°F16.3°C 56.9°F13.8°C 85% 1.8 mph WSW2.9 kmh WSW 4.8 mph7.7 kmh 30.18 in1022.0 mb 0.00 in0.0 mm 0.00 in0.0 mm 0.00 in0.0 mm
12:05 AM 61.4°F16.3°C 56.9°F13.8°C 85% 1.0 mph SSW1.6 kmh SSW 3.0 mph4.8 kmh 30.18 in1022.0 mb 0.00 in0.0 mm 0.00 in0.0 mm 0.00 in0.0 mm
12:10 AM 61.4°F16.3°C 56.9°F13.8°C 85% 1.4 mph S2.3 kmh S 3.0 mph4.8 kmh 30.18 in1022.0 mb 0.00 in0.0 mm 0.00 in0.0 mm 0.00 in0.0 mm
12:15 AM 61.4°F16.3°C 56.9°F13.8°C 85% 1.3 mph S2.1 kmh S 3.0 mph4.8 kmh 30.18 in1022.0 mb 0.00 in0.0 mm 0.00 in0.0 mm 0.00 in0.0 mm
12:20 AM 61.4°F16.3°C 56.9°F13.8°C 85% 0.3 mph SSW0.5 kmh SSW 1.8 mph2.9 kmh 30.18 in1022.0 mb 0.00 in0.0 mm 0.00 in0.0 mm 0.00 in0.0 mm
12:25 AM 61.4°F16.3°C 56.9°F13.8°C 85% 1.0 mph WSW1.6 kmh WSW 3.9 mph6.3 kmh 30.18 in1022.0 mb 0.00 in0.0 mm 0.00 in0.0 mm 0.00 in0.0 mm
12:30 AM 61.4°F16.3°C 56.9°F13.8°C 85% 1.8 mph W2.9 kmh W 3.9 mph6.3 kmh 30.18 in1022.0 mb 0.00 in0.0 mm 0.00 in0.0 mm 0.00 in0.0 mm
12:35 AM 61.6°F16.4°C 57.1°F13.9°C 85% 1.2 mph WNW1.9 kmh WNW 2.7 mph4.3 kmh 30.18 in1022.0 mb 0.00 in0.0 mm 0.00 in0.0 mm 0.00 in0.0 mm
12:40 AM 61.6°F16.4°C 57.1°F13.9°C 85% 1.0 mph W1.6 kmh W 2.7 mph4.3 kmh 30.18 in1022.0 mb 0.00 in0.0 mm 0.00 in0.0 mm 0.00 in0.0 mm
12:45 AM 61.6°F16.4°C 57.1°F13.9°C 85% 1.2 mph WSW1.9 kmh WSW 2.7 mph4.3 kmh 30.18 in1022.0 mb 0.00 in0.0 mm 0.00 in0.0 mm 0.00 in0.0 mm
12:50 AM 61.6°F16.4°C 57.1°F13.9°C 85% 1.8 mph SW2.9 kmh SW 3.6 mph5.8 kmh 30.18 in1022.0 mb 0.00 in0.0 mm 0.00 in0.0 mm 0.00 in0.0 mm
12:55 AM 61.6°F16.4°C 57.1°F13.9°C 85% 2.6 mph SSW4.2 kmh SSW 3.9 mph6.3 kmh 30.18 in1022.0 mb 0.00 in0.0 mm 0.00 in0.0 mm 0.00 in0.0 mm
01:00 AM 61.6°F16.4°C 57.1°F13.9°C 85% 2.4 mph SSW3.9 kmh SSW 3.9 mph6.3 kmh 30.18 in1022.0 mb 0.00 in0.0 mm 0.00 in0.0 mm 0.00 in0.0 mm
01:05 AM 61.6°F16.4°C 57.1°F13.9°C 85% 2.1 mph SSW3.4 kmh SSW 3.6 mph5.8 kmh 30.18 in1022.0 mb 0.00 in0.0 mm 0.00 in0.0 mm 0.00 in0.0 mm
01:10 AM 61.8°F16.6°C 57.2°F14.0°C 85% 1.6 mph SSW2.6 kmh SSW 3.0 mph4.8 kmh 30.15 in1021.0 mb 0.00 in0.0 mm 0.00 in0.0 mm 0.00 in0.0 mm
01:15 AM 61.8°F16.6°C 57.2°F14.0°C 85% 1.1 mph SW1.8 kmh SW 3.0 mph4.8 kmh 30.15 in1021.0 mb 0.00 in0.0 mm 0.00 in0.0 mm 0.00 in0.0 mm
01:20 AM 61.6°F16.4°C 57.1°F13.9°C 85% 1.3 mph WSW2.1 kmh WSW 4.8 mph7.7 kmh 30.15 in1021.0 mb 0.00 in0.0 mm 0.00 in0.0 mm 0.00 in0.0 mm
01:25 AM 61.6°F16.4°C 57.1°F13.9°C 85% 2.6 mph WSW4.2 kmh WSW 4.8 mph7.7 kmh 30.15 in1021.0 mb 0.00 in0.0 mm 0.00 in0.0 mm 0.00 in0.0 mm
01:30 AM 61.6°F16.4°C 57.1°F13.9°C 85% 3.4 mph WSW5.5 kmh WSW 4.5 mph7.2 kmh 30.15 in1021.0 mb 0.00 in0.0 mm 0.00 in0.0 mm 0.00 in0.0 mm
01:35 AM 61.4°F16.3°C 56.9°F13.8°C 85% 3.5 mph WSW5.6 kmh WSW 4.5 mph7.2 kmh 30.15 in1021.0 mb 0.00 in0.0 mm 0.00 in0.0 mm 0.00 in0.0 mm
01:40 AM 61.4°F16.3°C 56.9°F13.8°C 85% 2.6 mph WSW4.2 kmh WSW 4.2 mph6.8 kmh 30.15 in1021.0 mb 0.00 in0.0 mm 0.00 in0.0 mm 0.00 in0.0 mm
01:45 AM 61.4°F16.3°C 56.9°F13.8°C 85% 1.7 mph WSW2.7 kmh WSW 3.0 mph4.8 kmh 30.15 in1021.0 mb 0.00 in0.0 mm 0.00 in0.0 mm 0.00 in0.0 mm
01:50 AM 61.3°F16.3°C 57.0°F13.9°C 86% 1.1 mph WSW1.8 kmh WSW 2.7 mph4.3 kmh 30.15 in1021.0 mb 0.00 in0.0 mm 0.00 in0.0 mm 0.00 in0.0 mm
01:55 AM 60.9°F16.1°C 56.7°F13.7°C 86% 0.8 mph WSW1.3 kmh WSW 2.1 mph3.4 kmh 30.15 in1021.0 mb 0.00 in0.0 mm 0.00 in0.0 mm 0.00 in0.0 mm
02:00 AM 60.7°F15.9°C 56.5°F13.6°C 86% 1.3 mph WSW2.1 kmh WSW 2.1 mph3.4 kmh 30.15 in1021.0 mb 0.00 in0.0 mm 0.00 in0.0 mm 0.00 in0.0 mm
02:05 AM 60.7°F15.9°C 56.5°F13.6°C 86% 2.2 mph WSW3.5 kmh WSW 4.8 mph7.7 kmh 30.15 in1021.0 mb 0.00 in0.0 mm 0.00 in0.0 mm 0.00 in0.0 mm
02:10 AM 60.7°F15.9°C 56.8°F13.8°C 87% 2.9 mph WSW4.7 kmh WSW 4.8 mph7.7 kmh 30.15 in1021.0 mb 0.00 in0.0 mm 0.00 in0.0 mm 0.00 in0.0 mm
02:15 AM 60.7°F15.9°C 56.8°F13.8°C 87% 2.2 mph W3.5 kmh W 3.6 mph5.8 kmh 30.15 in1021.0 mb 0.00 in0.0 mm 0.00 in0.0 mm 0.00 in0.0 mm
02:20 AM 60.7°F15.9°C 56.8°F13.8°C 87% 2.3 mph W3.7 kmh W 3.6 mph5.8 kmh 30.15 in1021.0 mb 0.00 in0.0 mm 0.00 in0.0 mm 0.00 in0.0 mm
02:25 AM 60.7°F15.9°C 56.8°F13.8°C 87% 3.4 mph W5.5 kmh W 6.0 mph9.7 kmh 30.15 in1021.0 mb 0.00 in0.0 mm 0.00 in0.0 mm 0.00 in0.0 mm
02:30 AM 60.7°F15.9°C 56.8°F13.8°C 87% 3.8 mph W6.1 kmh W 7.1 mph11.4 kmh 30.15 in1021.0 mb 0.00 in0.0 mm 0.00 in0.0 mm 0.00 in0.0 mm
02:35 AM 60.7°F15.9°C 56.8°F13.8°C 87% 3.6 mph WSW5.8 kmh WSW 7.1 mph11.4 kmh 30.15 in1021.0 mb 0.00 in0.0 mm 0.00 in0.0 mm 0.00 in0.0 mm
02:40 AM 60.7°F15.9°C 56.8°F13.8°C 87% 3.5 mph WSW5.6 kmh WSW 4.8 mph7.7 kmh 30.15 in1021.0 mb 0.00 in0.0 mm 0.00 in0.0 mm 0.00 in0.0 mm
02:45 AM 60.7°F15.9°C 56.8°F13.8°C 87% 2.4 mph WSW3.9 kmh WSW 4.8 mph7.7 kmh 30.15 in1021.0 mb 0.00 in0.0 mm 0.00 in0.0 mm 0.00 in0.0 mm
02:50 AM 60.7°F15.9°C 56.8°F13.8°C 87% 1.4 mph SW2.3 kmh SW 2.7 mph4.3 kmh 30.15 in1021.0 mb 0.00 in0.0 mm 0.00 in0.0 mm 0.00 in0.0 mm
02:55 AM 60.7°F15.9°C 56.8°F13.8°C 87% 1.7 mph SW2.7 kmh SW 4.2 mph6.8 kmh 30.15 in1021.0 mb 0.00 in0.0 mm 0.00 in0.0 mm 0.00 in0.0 mm
03:00 AM 60.7°F15.9°C 57.1°F13.9°C 88% 1.3 mph SW2.1 kmh SW 4.2 mph6.8 kmh 30.15 in1021.0 mb 0.00 in0.0 mm 0.00 in0.0 mm 0.00 in0.0 mm
03:05 AM 60.7°F15.9°C 57.1°F13.9°C 88% 1.3 mph SW2.1 kmh SW 3.3 mph5.3 kmh 30.15 in1021.0 mb 0.00 in0.0 mm 0.00 in0.0 mm 0.00 in0.0 mm
03:10 AM 60.7°F15.9°C 57.1°F13.9°C 88% 2.9 mph SW4.7 kmh SW 5.4 mph8.7 kmh 30.15 in1021.0 mb 0.00 in0.0 mm 0.00 in0.0 mm 0.00 in0.0 mm
03:15 AM 60.7°F15.9°C 57.1°F13.9°C 88% 3.8 mph SSW6.1 kmh SSW 5.4 mph8.7 kmh 30.15 in1021.0 mb 0.00 in0.0 mm 0.00 in0.0 mm 0.00 in0.0 mm
03:20 AM 60.7°F15.9°C 57.1°F13.9°C 88% 3.9 mph SW6.3 kmh SW 5.4 mph8.7 kmh 30.15 in1021.0 mb 0.00 in0.0 mm 0.00 in0.0 mm 0.00 in0.0 mm
03:25 AM 60.7°F15.9°C 57.1°F13.9°C 88% 3.8 mph SW6.1 kmh SW 5.1 mph8.2 kmh 30.15 in1021.0 mb 0.00 in0.0 mm 0.00 in0.0 mm 0.00 in0.0 mm
03:30 AM 60.7°F15.9°C 57.1°F13.9°C 88% 3.1 mph SW5.0 kmh SW 5.7 mph9.2 kmh 30.15 in1021.0 mb 0.00 in0.0 mm 0.00 in0.0 mm 0.00 in0.0 mm
03:35 AM 60.7°F15.9°C 57.1°F13.9°C 88% 2.4 mph SSW3.9 kmh SSW 5.7 mph9.2 kmh 30.15 in1021.0 mb 0.00 in0.0 mm 0.00 in0.0 mm 0.00 in0.0 mm
03:40 AM 60.5°F15.8°C 57.0°F13.9°C 88% 3.4 mph SSW5.5 kmh SSW 5.4 mph8.7 kmh 30.15 in1021.0 mb 0.00 in0.0 mm 0.00 in0.0 mm 0.00 in0.0 mm
03:45 AM 60.5°F15.8°C 57.0°F13.9°C 88% 3.5 mph SSW5.6 kmh SSW 6.2 mph10.0 kmh 30.15 in1021.0 mb 0.00 in0.0 mm 0.00 in0.0 mm 0.00 in0.0 mm
03:50 AM 60.5°F15.8°C 57.0°F13.9°C 88% 2.5 mph SW4.0 kmh SW 6.2 mph10.0 kmh 30.15 in1021.0 mb 0.00 in0.0 mm 0.00 in0.0 mm 0.00 in0.0 mm
03:55 AM 60.5°F15.8°C 57.0°F13.9°C 88% 2.0 mph WSW3.2 kmh WSW 3.6 mph5.8 kmh 30.15 in1021.0 mb 0.00 in0.0 mm 0.00 in0.0 mm 0.00 in0.0 mm
04:00 AM 60.5°F15.8°C 57.0°F13.9°C 88% 1.7 mph WSW2.7 kmh WSW 4.2 mph6.8 kmh 30.15 in1021.0 mb 0.00 in0.0 mm 0.00 in0.0 mm 0.00 in0.0 mm
04:05 AM 60.5°F15.8°C 57.0°F13.9°C 88% 2.5 mph W4.0 kmh W 4.5 mph7.2 kmh 30.15 in1021.0 mb 0.00 in0.0 mm 0.00 in0.0 mm 0.00 in0.0 mm
04:10 AM 60.5°F15.8°C 57.0°F13.9°C 88% 4.1 mph W6.6 kmh W 6.5 mph10.5 kmh 30.15 in1021.0 mb 0.00 in0.0 mm 0.00 in0.0 mm 0.00 in0.0 mm
04:15 AM 60.5°F15.8°C 57.0°F13.9°C 88% 5.1 mph W8.2 kmh W 7.7 mph12.4 kmh 30.15 in1021.0 mb 0.00 in0.0 mm 0.00 in0.0 mm 0.00 in0.0 mm
04:20 AM 60.3°F15.7°C 56.8°F13.8°C 88% 6.0 mph W9.7 kmh W 9.5 mph15.3 kmh 30.15 in1021.0 mb 0.00 in0.0 mm 0.00 in0.0 mm 0.00 in0.0 mm
04:25 AM 60.3°F15.7°C 56.8°F13.8°C 88% 6.0 mph W9.7 kmh W 9.5 mph15.3 kmh 30.15 in1021.0 mb 0.00 in0.0 mm 0.00 in0.0 mm 0.00 in0.0 mm
04:35 AM 60.3°F15.7°C 56.8°F13.8°C 88% 4.4 mph W7.1 kmh W 7.0 mph11.3 kmh 30.15 in1021.0 mb 0.00 in0.0 mm 0.00 in0.0 mm 0.00 in0.0 mm
04:40 AM 60.3°F15.7°C 57.1°F13.9°C 89% 4.8 mph W7.7 kmh W 6.5 mph10.5 kmh 30.15 in1021.0 mb 0.00 in0.0 mm 0.00 in0.0 mm 0.00 in0.0 mm
04:45 AM 60.2°F15.7°C 56.9°F13.8°C 89% 4.3 mph WSW6.9 kmh WSW 6.5 mph10.5 kmh 30.15 in1021.0 mb 0.00 in0.0 mm 0.00 in0.0 mm 0.00 in0.0 mm
04:50 AM 60.3°F15.7°C 57.1°F13.9°C 89% 3.3 mph SW5.3 kmh SW 5.7 mph9.2 kmh 30.15 in1021.0 mb 0.00 in0.0 mm 0.00 in0.0 mm 0.00 in0.0 mm
04:55 AM 60.2°F15.7°C 56.9°F13.8°C 89% 3.5 mph WSW5.6 kmh WSW 7.1 mph11.4 kmh 30.15 in1021.0 mb 0.00 in0.0 mm 0.00 in0.0 mm 0.00 in0.0 mm
05:00 AM 60.3°F15.7°C 57.1°F13.9°C 89% 3.4 mph WSW5.5 kmh WSW 7.1 mph11.4 kmh 30.15 in1021.0 mb 0.00 in0.0 mm 0.00 in0.0 mm 0.00 in0.0 mm
05:05 AM 60.3°F15.7°C 57.1°F13.9°C 89% 2.4 mph WSW3.9 kmh WSW 3.9 mph6.3 kmh 30.12 in1020.0 mb 0.00 in0.0 mm 0.00 in0.0 mm 0.00 in0.0 mm
05:10 AM 60.3°F15.7°C 57.1°F13.9°C 89% 2.2 mph SW3.5 kmh SW 3.9 mph6.3 kmh 30.12 in1020.0 mb 0.00 in0.0 mm 0.00 in0.0 mm 0.00 in0.0 mm
05:15 AM 60.3°F15.7°C 57.1°F13.9°C 89% 2.8 mph SSW4.5 kmh SSW 4.8 mph7.7 kmh 30.12 in1020.0 mb 0.00 in0.0 mm 0.00 in0.0 mm 0.00 in0.0 mm
05:20 AM 60.3°F15.7°C 57.1°F13.9°C 89% 4.9 mph SSW7.9 kmh SSW 7.4 mph11.9 kmh 30.12 in1020.0 mb 0.00 in0.0 mm 0.00 in0.0 mm 0.00 in0.0 mm
05:25 AM 60.5°F15.8°C 57.3°F14.1°C 89% 5.4 mph SW8.7 kmh SW 7.4 mph11.9 kmh 30.12 in1020.0 mb 0.00 in0.0 mm 0.00 in0.0 mm 0.00 in0.0 mm
05:30 AM 60.5°F15.8°C 57.0°F13.9°C 88% 4.9 mph SSW7.9 kmh SSW 7.4 mph11.9 kmh 30.12 in1020.0 mb 0.00 in0.0 mm 0.00 in0.0 mm 0.00 in0.0 mm
05:35 AM 60.5°F15.8°C 57.0°F13.9°C 88% 4.7 mph S7.6 kmh S 7.4 mph11.9 kmh 30.15 in1021.0 mb 0.00 in0.0 mm 0.00 in0.0 mm 0.00 in0.0 mm
05:40 AM 60.9°F16.1°C 57.3°F14.1°C 88% 5.1 mph S8.2 kmh S 7.7 mph12.4 kmh 30.15 in1021.0 mb 0.00 in0.0 mm 0.00 in0.0 mm 0.00 in0.0 mm
05:45 AM 61.4°F16.3°C 57.8°F14.3°C 88% 4.9 mph S7.9 kmh S 7.7 mph12.4 kmh 30.15 in1021.0 mb 0.00 in0.0 mm 0.00 in0.0 mm 0.00 in0.0 mm
05:50 AM 62.0°F16.7°C 58.4°F14.7°C 88% 4.4 mph SW7.1 kmh SW 6.5 mph10.5 kmh 30.15 in1021.0 mb 0.00 in0.0 mm 0.00 in0.0 mm 0.00 in0.0 mm
05:55 AM 62.2°F16.8°C 58.6°F14.8°C 88% 4.5 mph SW7.2 kmh SW 7.1 mph11.4 kmh 30.15 in1021.0 mb 0.00 in0.0 mm 0.00 in0.0 mm 0.00 in0.0 mm
06:00 AM 62.7°F17.1°C 58.8°F14.9°C 87% 5.7 mph SSW9.2 kmh SSW 8.9 mph14.3 kmh 30.15 in1021.0 mb 0.00 in0.0 mm 0.00 in0.0 mm 0.00 in0.0 mm
06:05 AM 62.9°F17.2°C 58.6°F14.8°C 86% 6.6 mph SSW10.6 kmh SSW 8.9 mph14.3 kmh 30.15 in1021.0 mb 0.00 in0.0 mm 0.00 in0.0 mm 0.00 in0.0 mm
06:10 AM 62.9°F17.2°C 58.6°F14.8°C 86% 6.5 mph SSW10.5 kmh SSW 8.6 mph13.8 kmh 30.15 in1021.0 mb 0.00 in0.0 mm 0.00 in0.0 mm 0.00 in0.0 mm
06:15 AM 62.7°F17.1°C 58.1°F14.5°C 85% 6.3 mph SSW10.1 kmh SSW 8.6 mph13.8 kmh 30.15 in1021.0 mb 0.00 in0.0 mm 0.00 in0.0 mm 0.00 in0.0 mm
06:20 AM 62.7°F17.1°C 57.8°F14.3°C 84% 5.2 mph SSW8.4 kmh SSW 8.6 mph13.8 kmh 30.15 in1021.0 mb 0.00 in0.0 mm 0.00 in0.0 mm 0.00 in0.0 mm
06:25 AM 62.7°F17.1°C 57.8°F14.3°C 84% 4.3 mph SSW6.9 kmh SSW 7.4 mph11.9 kmh 30.15 in1021.0 mb 0.00 in0.0 mm 0.00 in0.0 mm 0.00 in0.0 mm
06:30 AM 62.5°F16.9°C 57.6°F14.2°C 84% 4.5 mph SSW7.2 kmh SSW 6.5 mph10.5 kmh 30.15 in1021.0 mb 0.00 in0.0 mm 0.00 in0.0 mm 0.00 in0.0 mm
06:35 AM 62.5°F16.9°C 57.6°F14.2°C 84% 4.7 mph SW7.6 kmh SW 9.8 mph15.8 kmh 30.15 in1021.0 mb 0.00 in0.0 mm 0.00 in0.0 mm 0.00 in0.0 mm
06:40 AM 62.5°F16.9°C 57.6°F14.2°C 84% 5.8 mph SW9.3 kmh SW 9.8 mph15.8 kmh 30.15 in1021.0 mb 0.00 in0.0 mm 0.00 in0.0 mm 0.00 in0.0 mm
06:45 AM 62.5°F16.9°C 57.6°F14.2°C 84% 6.9 mph SW11.1 kmh SW 10.4 mph16.7 kmh 30.15 in1021.0 mb 0.00 in0.0 mm 0.00 in0.0 mm 0.00 in0.0 mm
06:50 AM 62.9°F17.2°C 58.0°F14.4°C 84% 7.2 mph SW11.6 kmh SW 10.4 mph16.7 kmh 30.15 in1021.0 mb 0.00 in0.0 mm 0.00 in0.0 mm 0.00 in0.0 mm
06:55 AM 63.8°F17.7°C 58.5°F14.7°C 83% 6.4 mph SW10.3 kmh SW 8.6 mph13.8 kmh 30.15 in1021.0 mb 0.00 in0.0 mm 0.00 in0.0 mm 0.00 in0.0 mm
07:00 AM 64.3°F17.9°C 59.0°F15.0°C 83% 5.4 mph S8.7 kmh S 7.4 mph11.9 kmh 30.15 in1021.0 mb 0.00 in0.0 mm 0.00 in0.0 mm 0.00 in0.0 mm
07:05 AM 64.3°F17.9°C 59.0°F15.0°C 83% 6.3 mph S10.1 kmh S 8.3 mph13.4 kmh 30.15 in1021.0 mb 0.00 in0.0 mm 0.00 in0.0 mm 0.00 in0.0 mm
07:10 AM 64.7°F18.2°C 59.0°F15.0°C 82% 7.1 mph S11.4 kmh S 9.8 mph15.8 kmh 30.15 in1021.0 mb 0.00 in0.0 mm 0.00 in0.0 mm 0.00 in0.0 mm
07:15 AM 64.7°F18.2°C 59.0°F15.0°C 82% 6.1 mph S9.8 kmh S 9.8 mph15.8 kmh 30.15 in1021.0 mb 0.00 in0.0 mm 0.00 in0.0 mm 0.00 in0.0 mm
07:20 AM 64.8°F18.2°C 59.2°F15.1°C 82% 5.0 mph S8.0 kmh S 7.4 mph11.9 kmh 30.15 in1021.0 mb 0.00 in0.0 mm 0.00 in0.0 mm 0.00 in0.0 mm
07:25 AM 65.0°F18.3°C 59.1°F15.1°C 81% 4.9 mph S7.9 kmh S 7.4 mph11.9 kmh 30.15 in1021.0 mb 0.00 in0.0 mm 0.00 in0.0 mm 0.00 in0.0 mm
07:30 AM 65.0°F18.3°C 59.1°F15.1°C 81% 4.1 mph S6.6 kmh S 6.2 mph10.0 kmh 30.15 in1021.0 mb 0.00 in0.0 mm 0.00 in0.0 mm 0.00 in0.0 mm
07:35 AM 65.2°F18.4°C 58.9°F14.9°C 80% 4.7 mph SW7.6 kmh SW 9.5 mph15.3 kmh 30.15 in1021.0 mb 0.00 in0.0 mm 0.00 in0.0 mm 0.00 in0.0 mm
07:40 AM 65.2°F18.4°C 58.9°F14.9°C 80% 5.2 mph WSW8.4 kmh WSW 9.5 mph15.3 kmh 30.15 in1021.0 mb 0.00 in0.0 mm 0.00 in0.0 mm 0.00 in0.0 mm
07:45 AM 65.2°F18.4°C 58.9°F14.9°C 80% 4.3 mph WSW6.9 kmh WSW 6.5 mph10.5 kmh 30.15 in1021.0 mb 0.00 in0.0 mm 0.00 in0.0 mm 0.00 in0.0 mm
07:50 AM 65.2°F18.4°C 58.9°F14.9°C 80% 5.3 mph SW8.5 kmh SW 9.8 mph15.8 kmh 30.15 in1021.0 mb 0.00 in0.0 mm 0.00 in0.0 mm 0.00 in0.0 mm
07:55 AM 65.0°F18.3°C 58.7°F14.8°C 80% 6.8 mph SSW10.9 kmh SSW 9.8 mph15.8 kmh 30.15 in1021.0 mb 0.00 in0.0 mm 0.00 in0.0 mm 0.00 in0.0 mm
08:00 AM 65.0°F18.3°C 58.7°F14.8°C 80% 6.1 mph SSW9.8 kmh SSW 9.5 mph15.3 kmh 30.15 in1021.0 mb 0.00 in0.0 mm 0.00 in0.0 mm 0.00 in0.0 mm
08:05 AM 65.0°F18.3°C 58.7°F14.8°C 80% 6.3 mph SSW10.1 kmh SSW 10.4 mph16.7 kmh 30.15 in1021.0 mb 0.00 in0.0 mm 0.00 in0.0 mm 0.00 in0.0 mm
08:10 AM 65.0°F18.3°C 58.4°F14.7°C 79% 7.2 mph SW11.6 kmh SW 10.4 mph16.7 kmh 30.15 in1021.0 mb 0.00 in0.0 mm 0.00 in0.0 mm 0.00 in0.0 mm
08:15 AM 65.0°F18.3°C 58.7°F14.8°C 80% 7.7 mph WSW12.4 kmh WSW 13.7 mph22.0 kmh 30.15 in1021.0 mb 0.00 in0.0 mm 0.00 in0.0 mm 0.00 in0.0 mm
08:20 AM 65.0°F18.3°C 58.7°F14.8°C 80% 9.0 mph WSW14.5 kmh WSW 13.7 mph22.0 kmh 30.15 in1021.0 mb 0.00 in0.0 mm 0.00 in0.0 mm 0.00 in0.0 mm
08:25 AM 65.2°F18.4°C 58.9°F14.9°C 80% 9.5 mph WSW15.3 kmh WSW 13.7 mph22.0 kmh 30.15 in1021.0 mb 0.00 in0.0 mm 0.00 in0.0 mm 0.00 in0.0 mm
08:30 AM 65.4°F18.6°C 59.1°F15.1°C 80% 8.1 mph W13.0 kmh W 13.4 mph21.6 kmh 30.15 in1021.0 mb 0.00 in0.0 mm 0.00 in0.0 mm 0.00 in0.0 mm
08:35 AM 65.4°F18.6°C 59.1°F15.1°C 80% 9.6 mph W15.4 kmh W 16.1 mph25.9 kmh 30.15 in1021.0 mb 0.00 in0.0 mm 0.00 in0.0 mm 0.00 in0.0 mm
08:40 AM 65.4°F18.6°C 59.1°F15.1°C 80% 10.0 mph WSW16.1 kmh WSW 16.1 mph25.9 kmh 30.15 in1021.0 mb 0.00 in0.0 mm 0.00 in0.0 mm 0.00 in0.0 mm
08:45 AM 65.4°F18.6°C 59.1°F15.1°C 80% 9.4 mph WSW15.1 kmh WSW 16.1 mph25.9 kmh 30.15 in1021.0 mb 0.00 in0.0 mm 0.00 in0.0 mm 0.00 in0.0 mm
08:50 AM 65.4°F18.6°C 58.7°F14.8°C 79% 9.7 mph WSW15.6 kmh WSW 17.6 mph28.3 kmh 30.15 in1021.0 mb 0.00 in0.0 mm 0.00 in0.0 mm 0.00 in0.0 mm
08:55 AM 65.2°F18.4°C 58.9°F14.9°C 80% 9.9 mph W15.9 kmh W 17.6 mph28.3 kmh 30.15 in1021.0 mb 0.00 in0.0 mm 0.00 in0.0 mm 0.00 in0.0 mm
09:00 AM 65.2°F18.4°C 58.9°F14.9°C 80% 8.5 mph WSW13.7 kmh WSW 11.3 mph18.2 kmh 30.15 in1021.0 mb 0.00 in0.0 mm 0.00 in0.0 mm 0.00 in0.0 mm
09:05 AM 65.2°F18.4°C 58.9°F14.9°C 80% 6.9 mph WSW11.1 kmh WSW 8.9 mph14.3 kmh 30.15 in1021.0 mb 0.00 in0.0 mm 0.00 in0.0 mm 0.00 in0.0 mm
09:10 AM 66.3°F19.1°C 59.9°F15.5°C 80% 7.4 mph WSW11.9 kmh WSW 11.6 mph18.7 kmh 30.15 in1021.0 mb 0.00 in0.0 mm 0.00 in0.0 mm 0.00 in0.0 mm
09:15 AM 66.5°F19.2°C 60.1°F15.6°C 80% 7.7 mph WSW12.4 kmh WSW 11.6 mph18.7 kmh 30.15 in1021.0 mb 0.00 in0.0 mm 0.00 in0.0 mm 0.00 in0.0 mm
09:20 AM 66.7°F19.3°C 59.9°F15.5°C 79% 8.1 mph WSW13.0 kmh WSW 10.7 mph17.2 kmh 30.15 in1021.0 mb 0.00 in0.0 mm 0.00 in0.0 mm 0.00 in0.0 mm
09:25 AM 66.7°F19.3°C 59.6°F15.3°C 78% 9.4 mph SW15.1 kmh SW 12.8 mph20.6 kmh 30.15 in1021.0 mb 0.00 in0.0 mm 0.00 in0.0 mm 0.00 in0.0 mm
09:30 AM 66.8°F19.3°C 59.7°F15.4°C 78% 8.3 mph WSW13.4 kmh WSW 14.6 mph23.5 kmh 30.15 in1021.0 mb 0.00 in0.0 mm 0.00 in0.0 mm 0.00 in0.0 mm
09:35 AM 66.8°F19.3°C 59.7°F15.4°C 78% 7.6 mph WSW12.2 kmh WSW 14.6 mph23.5 kmh 30.15 in1021.0 mb 0.00 in0.0 mm 0.00 in0.0 mm 0.00 in0.0 mm
09:40 AM 67.6°F19.8°C 60.1°F15.6°C 77% 9.6 mph W15.4 kmh W 14.3 mph23.0 kmh 30.15 in1021.0 mb 0.00 in0.0 mm 0.00 in0.0 mm 0.00 in0.0 mm
09:45 AM 67.6°F19.8°C 59.7°F15.4°C 76% 11.3 mph W18.2 kmh W 16.1 mph25.9 kmh 30.15 in1021.0 mb 0.00 in0.0 mm 0.00 in0.0 mm 0.00 in0.0 mm
09:50 AM 67.6°F19.8°C 59.7°F15.4°C 76% 11.8 mph WSW19.0 kmh WSW 16.1 mph25.9 kmh 30.15 in1021.0 mb 0.00 in0.0 mm 0.00 in0.0 mm 0.00 in0.0 mm
09:55 AM 67.6°F19.8°C 59.7°F15.4°C 76% 11.2 mph WSW18.0 kmh WSW 16.1 mph25.9 kmh 30.15 in1021.0 mb 0.00 in0.0 mm 0.00 in0.0 mm 0.00 in0.0 mm
10:00 AM 67.6°F19.8°C 59.7°F15.4°C 76% 10.3 mph WSW16.6 kmh WSW 16.1 mph25.9 kmh 30.15 in1021.0 mb 0.00 in0.0 mm 0.00 in0.0 mm 0.00 in0.0 mm
10:05 AM 67.7°F19.8°C 59.5°F15.3°C 75% 8.8 mph WSW14.2 kmh WSW 13.1 mph21.1 kmh 30.15 in1021.0 mb 0.00 in0.0 mm 0.00 in0.0 mm 0.00 in0.0 mm
10:10 AM 68.6°F20.3°C 60.4°F15.8°C 75% 9.7 mph WSW15.6 kmh WSW 13.7 mph22.0 kmh 30.15 in1021.0 mb 0.00 in0.0 mm 0.00 in0.0 mm 0.00 in0.0 mm
10:15 AM 69.2°F20.7°C 60.5°F15.8°C 74% 11.6 mph W18.7 kmh W 18.7 mph30.1 kmh 30.15 in1021.0 mb 0.00 in0.0 mm 0.00 in0.0 mm 0.00 in0.0 mm
10:20 AM 69.2°F20.7°C 60.5°F15.8°C 74% 12.5 mph W20.1 kmh W 18.7 mph30.1 kmh 30.15 in1021.0 mb 0.00 in0.0 mm 0.00 in0.0 mm 0.00 in0.0 mm
10:25 AM 69.0°F20.6°C 60.0°F15.6°C 73% 12.7 mph W20.4 kmh W 17.3 mph27.8 kmh 30.15 in1021.0 mb 0.00 in0.0 mm 0.00 in0.0 mm 0.00 in0.0 mm
10:30 AM 68.4°F20.2°C 59.5°F15.3°C 73% 10.8 mph W17.4 kmh W 17.3 mph27.8 kmh 30.15 in1021.0 mb 0.00 in0.0 mm 0.00 in0.0 mm 0.00 in0.0 mm
10:35 AM 68.3°F20.2°C 59.3°F15.2°C 73% 9.3 mph W15.0 kmh W 14.3 mph23.0 kmh 30.15 in1021.0 mb 0.00 in0.0 mm 0.00 in0.0 mm 0.00 in0.0 mm
10:40 AM 68.3°F20.2°C 59.3°F15.2°C 73% 8.5 mph W13.7 kmh W 13.1 mph21.1 kmh 30.15 in1021.0 mb 0.00 in0.0 mm 0.00 in0.0 mm 0.00 in0.0 mm
10:45 AM 67.7°F19.8°C 58.8°F14.9°C 73% 9.7 mph W15.6 kmh W 13.7 mph22.0 kmh 30.15 in1021.0 mb 0.00 in0.0 mm 0.00 in0.0 mm 0.00 in0.0 mm
10:50 AM 67.7°F19.8°C 58.8°F14.9°C 73% 10.5 mph W16.9 kmh W 14.0 mph22.5 kmh 30.15 in1021.0 mb 0.00 in0.0 mm 0.00 in0.0 mm 0.00 in0.0 mm
10:55 AM 66.8°F19.3°C 59.0°F15.0°C 76% 9.0 mph W14.5 kmh W 14.0 mph22.5 kmh 30.15 in1021.0 mb 0.00 in0.0 mm 0.00 in0.0 mm 0.00 in0.0 mm
11:00 AM 66.3°F19.1°C 58.9°F14.9°C 77% 8.8 mph W14.2 kmh W 13.4 mph21.6 kmh 30.15 in1021.0 mb 0.00 in0.0 mm 0.00 in0.0 mm 0.00 in0.0 mm
11:05 AM 65.8°F18.8°C 58.7°F14.8°C 78% 9.0 mph W14.5 kmh W 13.4 mph21.6 kmh 30.15 in1021.0 mb 0.00 in0.0 mm 0.00 in0.0 mm 0.00 in0.0 mm
11:10 AM 65.4°F18.6°C 58.7°F14.8°C 79% 8.7 mph W14.0 kmh W 12.5 mph20.1 kmh 30.15 in1021.0 mb 0.00 in0.0 mm 0.00 in0.0 mm 0.00 in0.0 mm
11:15 AM 65.2°F18.4°C 58.9°F14.9°C 80% 7.7 mph W12.4 kmh W 11.9 mph19.2 kmh 30.15 in1021.0 mb 0.00 in0.0 mm 0.00 in0.0 mm 0.00 in0.0 mm
11:20 AM 65.0°F18.3°C 58.7°F14.8°C 80% 6.5 mph W10.5 kmh W 10.1 mph16.3 kmh 30.15 in1021.0 mb 0.00 in0.0 mm 0.00 in0.0 mm 0.00 in0.0 mm
11:25 AM 64.8°F18.2°C 58.9°F14.9°C 81% 6.6 mph W10.6 kmh W 10.1 mph16.3 kmh 30.15 in1021.0 mb 0.00 in0.0 mm 0.00 in0.0 mm 0.00 in0.0 mm
11:30 AM 65.0°F18.3°C 59.1°F15.1°C 81% 7.1 mph WNW11.4 kmh WNW 10.7 mph17.2 kmh 30.15 in1021.0 mb 0.00 in0.0 mm 0.00 in0.0 mm 0.00 in0.0 mm
11:35 AM 65.0°F18.3°C 58.7°F14.8°C 80% 8.2 mph WNW13.2 kmh WNW 14.0 mph22.5 kmh 30.15 in1021.0 mb 0.00 in0.0 mm 0.00 in0.0 mm 0.00 in0.0 mm
11:40 AM 65.0°F18.3°C 58.7°F14.8°C 80% 10.0 mph W16.1 kmh W 14.0 mph22.5 kmh 30.15 in1021.0 mb 0.00 in0.0 mm 0.00 in0.0 mm 0.00 in0.0 mm
11:45 AM 65.2°F18.4°C 58.9°F14.9°C 80% 9.7 mph W15.6 kmh W 13.4 mph21.6 kmh 30.15 in1021.0 mb 0.00 in0.0 mm 0.00 in0.0 mm 0.00 in0.0 mm
11:50 AM 65.0°F18.3°C 58.7°F14.8°C 80% 9.5 mph W15.3 kmh W 13.4 mph21.6 kmh 30.15 in1021.0 mb 0.00 in0.0 mm 0.00 in0.0 mm 0.00 in0.0 mm
11:55 AM 64.8°F18.2°C 58.5°F14.7°C 80% 9.4 mph WNW15.1 kmh WNW 17.6 mph28.3 kmh 30.15 in1021.0 mb 0.00 in0.0 mm 0.00 in0.0 mm 0.00 in0.0 mm
12:00 PM 64.7°F18.2°C 58.4°F14.7°C 80% 8.9 mph WNW14.3 kmh WNW 17.6 mph28.3 kmh 30.15 in1021.0 mb 0.00 in0.0 mm 0.00 in0.0 mm 0.00 in0.0 mm
12:05 PM 64.5°F18.1°C 58.2°F14.6°C 80% 8.8 mph WNW14.2 kmh WNW 13.1 mph21.1 kmh 30.15 in1021.0 mb 0.00 in0.0 mm 0.00 in0.0 mm 0.00 in0.0 mm
12:10 PM 64.3°F17.9°C 58.0°F14.4°C 80% 9.5 mph WNW15.3 kmh WNW 16.7 mph26.9 kmh 30.15 in1021.0 mb 0.00 in0.0 mm 0.00 in0.0 mm 0.00 in0.0 mm
12:15 PM 64.0°F17.8°C 58.0°F14.4°C 81% 10.4 mph WNW16.7 kmh WNW 16.7 mph26.9 kmh 30.15 in1021.0 mb 0.00 in0.0 mm 0.00 in0.0 mm 0.00 in0.0 mm
12:20 PM 64.0°F17.8°C 58.0°F14.4°C 81% 10.0 mph WNW16.1 kmh WNW 14.6 mph23.5 kmh 30.15 in1021.0 mb 0.00 in0.0 mm 0.00 in0.0 mm 0.00 in0.0 mm
12:25 PM 63.6°F17.6°C 57.7°F14.3°C 81% 10.2 mph WNW16.4 kmh WNW 15.2 mph24.5 kmh 30.15 in1021.0 mb 0.00 in0.0 mm 0.00 in0.0 mm 0.00 in0.0 mm
12:30 PM 63.4°F17.4°C 57.5°F14.2°C 81% 12.2 mph W19.6 kmh W 19.0 mph30.6 kmh 30.15 in1021.0 mb 0.00 in0.0 mm 0.00 in0.0 mm 0.00 in0.0 mm
12:35 PM 63.2°F17.3°C 57.3°F14.1°C 81% 14.7 mph W23.7 kmh W 23.5 mph37.8 kmh 30.15 in1021.0 mb 0.00 in0.0 mm 0.00 in0.0 mm 0.00 in0.0 mm
12:40 PM 63.0°F17.2°C 57.5°F14.2°C 82% 14.2 mph WNW22.9 kmh WNW 23.5 mph37.8 kmh 30.15 in1021.0 mb 0.00 in0.0 mm 0.00 in0.0 mm 0.00 in0.0 mm
12:45 PM 62.7°F17.1°C 57.5°F14.2°C 83% 12.6 mph WNW20.3 kmh WNW 20.2 mph32.5 kmh 30.15 in1021.0 mb 0.00 in0.0 mm 0.00 in0.0 mm 0.00 in0.0 mm
12:50 PM 62.5°F16.9°C 57.3°F14.1°C 83% 14.0 mph WNW22.5 kmh WNW 20.2 mph32.5 kmh 30.15 in1021.0 mb 0.00 in0.0 mm 0.00 in0.0 mm 0.00 in0.0 mm
12:55 PM 62.3°F16.8°C 57.1°F13.9°C 83% 14.0 mph WNW22.5 kmh WNW 20.5 mph33.0 kmh 30.15 in1021.0 mb 0.00 in0.0 mm 0.00 in0.0 mm 0.00 in0.0 mm
01:00 PM 62.3°F16.8°C 57.4°F14.1°C 84% 12.9 mph NW20.8 kmh NW 20.5 mph33.0 kmh 30.15 in1021.0 mb 0.00 in0.0 mm 0.00 in0.0 mm 0.00 in0.0 mm
01:05 PM 62.5°F16.9°C 57.6°F14.2°C 84% 10.4 mph NW16.7 kmh NW 14.6 mph23.5 kmh 30.15 in1021.0 mb 0.00 in0.0 mm 0.00 in0.0 mm 0.00 in0.0 mm
01:10 PM 62.5°F16.9°C 57.6°F14.2°C 84% 10.9 mph NW17.5 kmh NW 16.1 mph25.9 kmh 30.15 in1021.0 mb 0.00 in0.0 mm 0.00 in0.0 mm 0.00 in0.0 mm
01:15 PM 62.7°F17.1°C 58.1°F14.5°C 85% 11.8 mph WNW19.0 kmh WNW 16.7 mph26.9 kmh 30.15 in1021.0 mb 0.00 in0.0 mm 0.00 in0.0 mm 0.00 in0.0 mm
01:20 PM 62.7°F17.1°C 57.8°F14.3°C 84% 10.8 mph W17.4 kmh W 16.7 mph26.9 kmh 30.15 in1021.0 mb 0.00 in0.0 mm 0.00 in0.0 mm 0.00 in0.0 mm
01:25 PM 62.9°F17.2°C 58.0°F14.4°C 84% 11.4 mph W18.3 kmh W 16.7 mph26.9 kmh 30.15 in1021.0 mb 0.00 in0.0 mm 0.00 in0.0 mm 0.00 in0.0 mm
01:30 PM 62.9°F17.2°C 58.0°F14.4°C 84% 11.1 mph WNW17.9 kmh WNW 14.6 mph23.5 kmh 30.15 in1021.0 mb 0.00 in0.0 mm 0.00 in0.0 mm 0.00 in0.0 mm
01:35 PM 63.0°F17.2°C 57.8°F14.3°C 83% 10.0 mph WNW16.1 kmh WNW 14.9 mph24.0 kmh 30.15 in1021.0 mb 0.00 in0.0 mm 0.00 in0.0 mm 0.00 in0.0 mm
01:40 PM 63.0°F17.2°C 57.8°F14.3°C 83% 10.2 mph WNW16.4 kmh WNW 14.9 mph24.0 kmh 30.15 in1021.0 mb 0.00 in0.0 mm 0.00 in0.0 mm 0.00 in0.0 mm
01:45 PM 63.2°F17.3°C 58.0°F14.4°C 83% 10.0 mph NW16.1 kmh NW 14.9 mph24.0 kmh 30.15 in1021.0 mb 0.00 in0.0 mm 0.00 in0.0 mm 0.00 in0.0 mm
01:50 PM 63.2°F17.3°C 57.6°F14.2°C 82% 8.4 mph WNW13.5 kmh WNW 14.3 mph23.0 kmh 30.15 in1021.0 mb 0.00 in0.0 mm 0.00 in0.0 mm 0.00 in0.0 mm
01:55 PM 63.6°F17.6°C 58.0°F14.4°C 82% 7.7 mph WNW12.4 kmh WNW 11.6 mph18.7 kmh 30.15 in1021.0 mb 0.00 in0.0 mm 0.00 in0.0 mm 0.00 in0.0 mm
02:00 PM 64.0°F17.8°C 58.3°F14.6°C 82% 7.8 mph WNW12.6 kmh WNW 20.5 mph33.0 kmh 30.15 in1021.0 mb 0.00 in0.0 mm 0.00 in0.0 mm 0.00 in0.0 mm
02:05 PM 64.0°F17.8°C 58.3°F14.6°C 82% 9.2 mph W14.8 kmh W 20.5 mph33.0 kmh 30.15 in1021.0 mb 0.00 in0.0 mm 0.00 in0.0 mm 0.00 in0.0 mm
02:10 PM 64.0°F17.8°C 58.0°F14.4°C 81% 9.9 mph W15.9 kmh W 13.4 mph21.6 kmh 30.15 in1021.0 mb 0.00 in0.0 mm 0.00 in0.0 mm 0.00 in0.0 mm
02:15 PM 64.0°F17.8°C 58.0°F14.4°C 81% 9.9 mph W15.9 kmh W 14.6 mph23.5 kmh 30.15 in1021.0 mb 0.00 in0.0 mm 0.00 in0.0 mm 0.00 in0.0 mm
02:20 PM 63.8°F17.7°C 57.8°F14.3°C 81% 11.4 mph W18.3 kmh W 17.3 mph27.8 kmh 30.15 in1021.0 mb 0.00 in0.0 mm 0.00 in0.0 mm 0.00 in0.0 mm
02:25 PM 63.6°F17.6°C 57.3°F14.1°C 80% 11.3 mph WNW18.2 kmh WNW 17.3 mph27.8 kmh 30.15 in1021.0 mb 0.00 in0.0 mm 0.00 in0.0 mm 0.00 in0.0 mm
02:30 PM 63.6°F17.6°C 57.3°F14.1°C 80% 9.0 mph WNW14.5 kmh WNW 13.7 mph22.0 kmh 30.15 in1021.0 mb 0.00 in0.0 mm 0.00 in0.0 mm 0.00 in0.0 mm
02:35 PM 63.6°F17.6°C 57.3°F14.1°C 80% 9.4 mph WNW15.1 kmh WNW 17.0 mph27.4 kmh 30.15 in1021.0 mb 0.00 in0.0 mm 0.00 in0.0 mm 0.00 in0.0 mm
02:40 PM 64.0°F17.8°C 57.7°F14.3°C 80% 10.4 mph NW16.7 kmh NW 17.0 mph27.4 kmh 30.15 in1021.0 mb 0.00 in0.0 mm 0.00 in0.0 mm 0.00 in0.0 mm
02:45 PM 64.0°F17.8°C 57.7°F14.3°C 80% 11.6 mph W18.7 kmh W 20.2 mph32.5 kmh 30.15 in1021.0 mb 0.00 in0.0 mm 0.00 in0.0 mm 0.00 in0.0 mm
02:50 PM 63.8°F17.7°C 57.1°F13.9°C 79% 12.5 mph W20.1 kmh W 21.4 mph34.4 kmh 30.15 in1021.0 mb 0.00 in0.0 mm 0.00 in0.0 mm 0.00 in0.0 mm
02:55 PM 63.4°F17.4°C 56.8°F13.8°C 79% 11.4 mph WNW18.3 kmh WNW 21.4 mph34.4 kmh 30.15 in1021.0 mb 0.00 in0.0 mm 0.00 in0.0 mm 0.00 in0.0 mm
03:00 PM 63.4°F17.4°C 56.8°F13.8°C 79% 11.6 mph WNW18.7 kmh WNW 16.7 mph26.9 kmh 30.15 in1021.0 mb 0.00 in0.0 mm 0.00 in0.0 mm 0.00 in0.0 mm
03:05 PM 63.8°F17.7°C 57.5°F14.2°C 80% 11.4 mph WNW18.3 kmh WNW 16.7 mph26.9 kmh 30.15 in1021.0 mb 0.00 in0.0 mm 0.00 in0.0 mm 0.00 in0.0 mm
03:10 PM 64.1°F17.8°C 57.5°F14.2°C 79% 10.3 mph W16.6 kmh W 13.7 mph22.0 kmh 30.15 in1021.0 mb 0.00 in0.0 mm 0.00 in0.0 mm 0.00 in0.0 mm
03:15 PM 64.3°F17.9°C 57.7°F14.3°C 79% 9.2 mph W14.8 kmh W 11.9 mph19.2 kmh 30.15 in1021.0 mb 0.00 in0.0 mm 0.00 in0.0 mm 0.00 in0.0 mm
03:20 PM 64.5°F18.1°C 57.8°F14.3°C 79% 9.3 mph W15.0 kmh W 12.2 mph19.6 kmh 30.15 in1021.0 mb 0.00 in0.0 mm 0.00 in0.0 mm 0.00 in0.0 mm
03:25 PM 65.0°F18.3°C 58.0°F14.4°C 78% 8.6 mph W13.8 kmh W 12.2 mph19.6 kmh 30.15 in1021.0 mb 0.00 in0.0 mm 0.00 in0.0 mm 0.00 in0.0 mm
03:30 PM 65.0°F18.3°C 58.0°F14.4°C 78% 9.1 mph W14.6 kmh W 15.8 mph25.4 kmh 30.15 in1021.0 mb 0.00 in0.0 mm 0.00 in0.0 mm 0.00 in0.0 mm
03:35 PM 65.9°F18.8°C 58.5°F14.7°C 77% 10.0 mph W16.1 kmh W 15.8 mph25.4 kmh 30.15 in1021.0 mb 0.00 in0.0 mm 0.00 in0.0 mm 0.00 in0.0 mm
03:40 PM 65.9°F18.8°C 58.1°F14.5°C 76% 11.2 mph W18.0 kmh W 17.3 mph27.8 kmh 30.15 in1021.0 mb 0.00 in0.0 mm 0.00 in0.0 mm 0.00 in0.0 mm
03:45 PM 66.1°F18.9°C 58.0°F14.4°C 75% 13.3 mph W21.4 kmh W 17.3 mph27.8 kmh 30.15 in1021.0 mb 0.00 in0.0 mm 0.00 in0.0 mm 0.00 in0.0 mm
03:50 PM 66.1°F18.9°C 57.6°F14.2°C 74% 12.9 mph W20.8 kmh W 18.4 mph29.6 kmh 30.15 in1021.0 mb 0.00 in0.0 mm 0.00 in0.0 mm 0.00 in0.0 mm
03:55 PM 66.5°F19.2°C 57.5°F14.2°C 73% 12.8 mph W20.6 kmh W 18.4 mph29.6 kmh 30.15 in1021.0 mb 0.00 in0.0 mm 0.00 in0.0 mm 0.00 in0.0 mm
04:00 PM 66.7°F19.3°C 57.3°F14.1°C 72% 13.9 mph WNW22.4 kmh WNW 19.0 mph30.6 kmh 30.15 in1021.0 mb 0.00 in0.0 mm 0.00 in0.0 mm 0.00 in0.0 mm
04:05 PM 66.7°F19.3°C 57.3°F14.1°C 72% 13.4 mph WNW21.6 kmh WNW 19.6 mph31.5 kmh 30.15 in1021.0 mb 0.00 in0.0 mm 0.00 in0.0 mm 0.00 in0.0 mm
04:10 PM 66.1°F18.9°C 56.4°F13.6°C 71% 13.0 mph W20.9 kmh W 19.6 mph31.5 kmh 30.15 in1021.0 mb 0.00 in0.0 mm 0.00 in0.0 mm 0.00 in0.0 mm
04:15 PM 66.1°F18.9°C 56.4°F13.6°C 71% 13.4 mph WNW21.6 kmh WNW 16.4 mph26.4 kmh 30.15 in1021.0 mb 0.00 in0.0 mm 0.00 in0.0 mm 0.00 in0.0 mm
04:20 PM 66.1°F18.9°C 56.4°F13.6°C 71% 12.1 mph WNW19.5 kmh WNW 16.4 mph26.4 kmh 30.15 in1021.0 mb 0.00 in0.0 mm 0.00 in0.0 mm 0.00 in0.0 mm
04:25 PM 66.3°F19.1°C 56.6°F13.7°C 71% 10.5 mph W16.9 kmh W 14.0 mph22.5 kmh 30.15 in1021.0 mb 0.00 in0.0 mm 0.00 in0.0 mm 0.00 in0.0 mm
04:30 PM 66.7°F19.3°C 56.9°F13.8°C 71% 10.1 mph W16.3 kmh W 14.3 mph23.0 kmh 30.15 in1021.0 mb 0.00 in0.0 mm 0.00 in0.0 mm 0.00 in0.0 mm
04:35 PM 66.5°F19.2°C 56.8°F13.8°C 71% 10.2 mph W16.4 kmh W 14.3 mph23.0 kmh 30.15 in1021.0 mb 0.00 in0.0 mm 0.00 in0.0 mm 0.00 in0.0 mm
04:40 PM 66.5°F19.2°C 56.8°F13.8°C 71% 10.7 mph W17.2 kmh W 14.0 mph22.5 kmh 30.15 in1021.0 mb 0.00 in0.0 mm 0.00 in0.0 mm 0.00 in0.0 mm
04:45 PM 66.5°F19.2°C 56.8°F13.8°C 71% 13.6 mph W21.9 kmh W 19.6 mph31.5 kmh 30.15 in1021.0 mb 0.00 in0.0 mm 0.00 in0.0 mm 0.00 in0.0 mm
04:50 PM 66.1°F18.9°C 56.4°F13.6°C 71% 12.7 mph WNW20.4 kmh WNW 19.6 mph31.5 kmh 30.15 in1021.0 mb 0.00 in0.0 mm 0.00 in0.0 mm 0.00 in0.0 mm
04:55 PM 66.3°F19.1°C 56.2°F13.4°C 70% 11.4 mph WNW18.3 kmh WNW 16.7 mph26.9 kmh 30.15 in1021.0 mb 0.00 in0.0 mm 0.00 in0.0 mm 0.00 in0.0 mm
05:00 PM 66.5°F19.2°C 56.4°F13.6°C 70% 12.1 mph W19.5 kmh W 16.7 mph26.9 kmh 30.15 in1021.0 mb 0.00 in0.0 mm 0.00 in0.0 mm 0.00 in0.0 mm
05:05 PM 66.5°F19.2°C 56.4°F13.6°C 70% 11.0 mph W17.7 kmh W 16.4 mph26.4 kmh 30.15 in1021.0 mb 0.00 in0.0 mm 0.00 in0.0 mm 0.00 in0.0 mm
05:10 PM 66.5°F19.2°C 56.0°F13.3°C 69% 10.2 mph WNW16.4 kmh WNW 16.1 mph25.9 kmh 30.15 in1021.0 mb 0.00 in0.0 mm 0.00 in0.0 mm 0.00 in0.0 mm
05:15 PM 66.5°F19.2°C 56.0°F13.3°C 69% 10.4 mph W16.7 kmh W 14.3 mph23.0 kmh 30.15 in1021.0 mb 0.00 in0.0 mm 0.00 in0.0 mm 0.00 in0.0 mm
05:20 PM 66.5°F19.2°C 56.0°F13.3°C 69% 11.9 mph W19.2 kmh W 16.7 mph26.9 kmh 30.15 in1021.0 mb 0.00 in0.0 mm 0.00 in0.0 mm 0.00 in0.0 mm
05:25 PM 66.3°F19.1°C 55.8°F13.2°C 69% 11.6 mph W18.7 kmh W 17.3 mph27.8 kmh 30.15 in1021.0 mb 0.00 in0.0 mm 0.00 in0.0 mm 0.00 in0.0 mm
05:30 PM 65.8°F18.8°C 55.3°F12.9°C 69% 10.0 mph W16.1 kmh W 17.3 mph27.8 kmh 30.15 in1021.0 mb 0.00 in0.0 mm 0.00 in0.0 mm 0.00 in0.0 mm
05:35 PM 65.2°F18.4°C 54.8°F12.7°C 69% 8.6 mph W13.8 kmh W 17.0 mph27.4 kmh 30.15 in1021.0 mb 0.00 in0.0 mm 0.00 in0.0 mm 0.00 in0.0 mm
05:40 PM 65.2°F18.4°C 54.8°F12.7°C 69% 6.9 mph W11.1 kmh W 9.8 mph15.8 kmh 30.15 in1021.0 mb 0.00 in0.0 mm 0.00 in0.0 mm 0.00 in0.0 mm
05:45 PM 64.7°F18.2°C 55.0°F12.8°C 71% 7.1 mph W11.4 kmh W 13.7 mph22.0 kmh 30.15 in1021.0 mb 0.00 in0.0 mm 0.00 in0.0 mm 0.00 in0.0 mm
05:50 PM 64.1°F17.8°C 54.5°F12.5°C 71% 8.4 mph WNW13.5 kmh WNW 14.0 mph22.5 kmh 30.15 in1021.0 mb 0.00 in0.0 mm 0.00 in0.0 mm 0.00 in0.0 mm
05:55 PM 63.8°F17.7°C 54.6°F12.6°C 72% 9.2 mph W14.8 kmh W 14.0 mph22.5 kmh 30.15 in1021.0 mb 0.00 in0.0 mm 0.00 in0.0 mm 0.00 in0.0 mm
06:00 PM 63.4°F17.4°C 54.2°F12.3°C 72% 9.3 mph W15.0 kmh W 13.4 mph21.6 kmh 30.15 in1021.0 mb 0.00 in0.0 mm 0.00 in0.0 mm 0.00 in0.0 mm
06:05 PM 63.2°F17.3°C 54.0°F12.2°C 72% 9.6 mph W15.4 kmh W 12.2 mph19.6 kmh 30.15 in1021.0 mb 0.00 in0.0 mm 0.00 in0.0 mm 0.00 in0.0 mm
06:10 PM 63.2°F17.3°C 54.0°F12.2°C 72% 11.8 mph WNW19.0 kmh WNW 20.5 mph33.0 kmh 30.15 in1021.0 mb 0.00 in0.0 mm 0.00 in0.0 mm 0.00 in0.0 mm
06:15 PM 63.2°F17.3°C 54.0°F12.2°C 72% 12.9 mph W20.8 kmh W 20.5 mph33.0 kmh 30.15 in1021.0 mb 0.00 in0.0 mm 0.00 in0.0 mm 0.00 in0.0 mm
06:20 PM 63.0°F17.2°C 54.3°F12.4°C 73% 10.5 mph W16.9 kmh W 17.0 mph27.4 kmh 30.15 in1021.0 mb 0.00 in0.0 mm 0.00 in0.0 mm 0.00 in0.0 mm
06:25 PM 62.5°F16.9°C 54.1°F12.3°C 74% 7.1 mph W11.4 kmh W 14.0 mph22.5 kmh 30.15 in1021.0 mb 0.00 in0.0 mm 0.00 in0.0 mm 0.00 in0.0 mm
06:30 PM 62.0°F16.7°C 53.6°F12.0°C 74% 6.8 mph W10.9 kmh W 10.1 mph16.3 kmh 30.15 in1021.0 mb 0.00 in0.0 mm 0.00 in0.0 mm 0.00 in0.0 mm
06:35 PM 61.6°F16.4°C 53.6°F12.0°C 75% 9.1 mph WNW14.6 kmh WNW 13.7 mph22.0 kmh 30.15 in1021.0 mb 0.00 in0.0 mm 0.00 in0.0 mm 0.00 in0.0 mm
06:40 PM 61.4°F16.3°C 53.4°F11.9°C 75% 10.3 mph NW16.6 kmh NW 13.7 mph22.0 kmh 30.15 in1021.0 mb 0.00 in0.0 mm 0.00 in0.0 mm 0.00 in0.0 mm
06:45 PM 61.1°F16.2°C 53.4°F11.9°C 76% 9.7 mph WNW15.6 kmh WNW 13.7 mph22.0 kmh 30.15 in1021.0 mb 0.00 in0.0 mm 0.00 in0.0 mm 0.00 in0.0 mm
06:50 PM 60.9°F16.1°C 53.3°F11.8°C 76% 9.2 mph WNW14.8 kmh WNW 13.7 mph22.0 kmh 30.15 in1021.0 mb 0.00 in0.0 mm 0.00 in0.0 mm 0.00 in0.0 mm
06:55 PM 60.7°F15.9°C 53.5°F11.9°C 77% 9.5 mph W15.3 kmh W 16.4 mph26.4 kmh 30.15 in1021.0 mb 0.00 in0.0 mm 0.00 in0.0 mm 0.00 in0.0 mm
07:00 PM 60.7°F15.9°C 53.5°F11.9°C 77% 9.5 mph W15.3 kmh W 16.4 mph26.4 kmh 30.15 in1021.0 mb 0.00 in0.0 mm 0.00 in0.0 mm 0.00 in0.0 mm
07:05 PM 60.7°F15.9°C 53.8°F12.1°C 78% 9.0 mph WNW14.5 kmh WNW 12.5 mph20.1 kmh 30.15 in1021.0 mb 0.00 in0.0 mm 0.00 in0.0 mm 0.00 in0.0 mm
07:10 PM 60.7°F15.9°C 53.8°F12.1°C 78% 7.4 mph WNW11.9 kmh WNW 12.5 mph20.1 kmh 30.15 in1021.0 mb 0.00 in0.0 mm 0.00 in0.0 mm 0.00 in0.0 mm
07:15 PM 60.7°F15.9°C 53.8°F12.1°C 78% 7.7 mph NW12.4 kmh NW 12.5 mph20.1 kmh 30.15 in1021.0 mb 0.00 in0.0 mm 0.00 in0.0 mm 0.00 in0.0 mm
07:20 PM 60.7°F15.9°C 54.2°F12.3°C 79% 9.0 mph WNW14.5 kmh WNW 13.4 mph21.6 kmh 30.15 in1021.0 mb 0.00 in0.0 mm 0.00 in0.0 mm 0.00 in0.0 mm
07:25 PM 60.7°F15.9°C 54.2°F12.3°C 79% 9.0 mph W14.5 kmh W 13.4 mph21.6 kmh 30.15 in1021.0 mb 0.00 in0.0 mm 0.00 in0.0 mm 0.00 in0.0 mm
07:30 PM 60.7°F15.9°C 54.2°F12.3°C 79% 9.0 mph WNW14.5 kmh WNW 13.1 mph21.1 kmh 30.15 in1021.0 mb 0.00 in0.0 mm 0.00 in0.0 mm 0.00 in0.0 mm
07:35 PM 60.7°F15.9°C 54.2°F12.3°C 79% 9.0 mph WNW14.5 kmh WNW 13.1 mph21.1 kmh 30.15 in1021.0 mb 0.00 in0.0 mm 0.00 in0.0 mm 0.00 in0.0 mm
07:40 PM 60.7°F15.9°C 54.5°F12.5°C 80% 8.5 mph WNW13.7 kmh WNW 12.8 mph20.6 kmh 30.15 in1021.0 mb 0.00 in0.0 mm 0.00 in0.0 mm 0.00 in0.0 mm
07:45 PM 60.5°F15.8°C 54.3°F12.4°C 80% 7.2 mph W11.6 kmh W 9.5 mph15.3 kmh 30.15 in1021.0 mb 0.00 in0.0 mm 0.00 in0.0 mm 0.00 in0.0 mm
07:50 PM 60.5°F15.8°C 54.3°F12.4°C 80% 8.4 mph WNW13.5 kmh WNW 15.2 mph24.5 kmh 30.15 in1021.0 mb 0.00 in0.0 mm 0.00 in0.0 mm 0.00 in0.0 mm
07:55 PM 60.5°F15.8°C 54.3°F12.4°C 80% 8.7 mph WNW14.0 kmh WNW 15.2 mph24.5 kmh 30.15 in1021.0 mb 0.00 in0.0 mm 0.00 in0.0 mm 0.00 in0.0 mm
08:00 PM 60.5°F15.8°C 54.3°F12.4°C 80% 7.8 mph WNW12.6 kmh WNW 10.1 mph16.3 kmh 30.15 in1021.0 mb 0.00 in0.0 mm 0.00 in0.0 mm 0.00 in0.0 mm
08:05 PM 60.3°F15.7°C 54.5°F12.5°C 81% 7.4 mph W11.9 kmh W 10.1 mph16.3 kmh 30.15 in1021.0 mb 0.00 in0.0 mm 0.00 in0.0 mm 0.00 in0.0 mm
08:10 PM 60.3°F15.7°C 54.5°F12.5°C 81% 6.7 mph W10.8 kmh W 8.0 mph12.9 kmh 30.15 in1021.0 mb 0.00 in0.0 mm 0.00 in0.0 mm 0.00 in0.0 mm
08:15 PM 60.3°F15.7°C 54.5°F12.5°C 81% 6.1 mph W9.8 kmh W 7.7 mph12.4 kmh 30.15 in1021.0 mb 0.00 in0.0 mm 0.00 in0.0 mm 0.00 in0.0 mm
08:20 PM 60.2°F15.7°C 54.3°F12.4°C 81% 4.9 mph WNW7.9 kmh WNW 7.1 mph11.4 kmh 30.15 in1021.0 mb 0.00 in0.0 mm 0.00 in0.0 mm 0.00 in0.0 mm
08:25 PM 60.2°F15.7°C 54.3°F12.4°C 81% 4.4 mph WNW7.1 kmh WNW 5.7 mph9.2 kmh 30.15 in1021.0 mb 0.00 in0.0 mm 0.00 in0.0 mm 0.00 in0.0 mm
08:30 PM 60.2°F15.7°C 54.3°F12.4°C 81% 5.4 mph WNW8.7 kmh WNW 7.1 mph11.4 kmh 30.15 in1021.0 mb 0.00 in0.0 mm 0.00 in0.0 mm 0.00 in0.0 mm
08:35 PM 60.0°F15.6°C 54.1°F12.3°C 81% 6.6 mph W10.6 kmh W 10.7 mph17.2 kmh 30.18 in1022.0 mb 0.00 in0.0 mm 0.00 in0.0 mm 0.00 in0.0 mm
08:40 PM 59.8°F15.4°C 54.0°F12.2°C 81% 6.1 mph WNW9.8 kmh WNW 10.7 mph17.2 kmh 30.18 in1022.0 mb 0.00 in0.0 mm 0.00 in0.0 mm 0.00 in0.0 mm
08:45 PM 59.6°F15.3°C 53.5°F11.9°C 80% 4.6 mph WNW7.4 kmh WNW 6.5 mph10.5 kmh 30.18 in1022.0 mb 0.00 in0.0 mm 0.00 in0.0 mm 0.00 in0.0 mm
08:50 PM 59.3°F15.2°C 53.1°F11.7°C 80% 5.3 mph NW8.5 kmh NW 8.6 mph13.8 kmh 30.18 in1022.0 mb 0.00 in0.0 mm 0.00 in0.0 mm 0.00 in0.0 mm
08:55 PM 58.9°F14.9°C 52.4°F11.3°C 79% 6.7 mph NW10.8 kmh NW 10.7 mph17.2 kmh 30.18 in1022.0 mb 0.00 in0.0 mm 0.00 in0.0 mm 0.00 in0.0 mm
09:00 PM 58.9°F14.9°C 52.1°F11.2°C 78% 7.4 mph NW11.9 kmh NW 10.7 mph17.2 kmh 30.18 in1022.0 mb 0.00 in0.0 mm 0.00 in0.0 mm 0.00 in0.0 mm
09:05 PM 58.5°F14.7°C 51.7°F10.9°C 78% 8.3 mph NW13.4 kmh NW 10.7 mph17.2 kmh 30.18 in1022.0 mb 0.00 in0.0 mm 0.00 in0.0 mm 0.00 in0.0 mm
09:10 PM 58.5°F14.7°C 51.7°F10.9°C 78% 8.9 mph NNW14.3 kmh NNW 12.2 mph19.6 kmh 30.18 in1022.0 mb 0.00 in0.0 mm 0.00 in0.0 mm 0.00 in0.0 mm
09:15 PM 58.4°F14.7°C 51.2°F10.7°C 77% 8.1 mph NNW13.0 kmh NNW 12.2 mph19.6 kmh 30.18 in1022.0 mb 0.00 in0.0 mm 0.00 in0.0 mm 0.00 in0.0 mm
09:20 PM 58.4°F14.7°C 51.2°F10.7°C 77% 8.6 mph NNW13.8 kmh NNW 11.3 mph18.2 kmh 30.18 in1022.0 mb 0.00 in0.0 mm 0.00 in0.0 mm 0.00 in0.0 mm
09:25 PM 58.2°F14.6°C 51.0°F10.6°C 77% 8.8 mph NNW14.2 kmh NNW 11.3 mph18.2 kmh 30.18 in1022.0 mb 0.00 in0.0 mm 0.00 in0.0 mm 0.00 in0.0 mm
09:30 PM 58.0°F14.4°C 50.8°F10.4°C 77% 7.3 mph NNW11.7 kmh NNW 11.3 mph18.2 kmh 30.18 in1022.0 mb 0.00 in0.0 mm 0.00 in0.0 mm 0.00 in0.0 mm
09:35 PM 58.0°F14.4°C 50.8°F10.4°C 77% 8.3 mph NNW13.4 kmh NNW 13.1 mph21.1 kmh 30.18 in1022.0 mb 0.00 in0.0 mm 0.00 in0.0 mm 0.00 in0.0 mm
09:40 PM 57.8°F14.3°C 50.7°F10.4°C 77% 7.9 mph NW12.7 kmh NW 13.1 mph21.1 kmh 30.18 in1022.0 mb 0.00 in0.0 mm 0.00 in0.0 mm 0.00 in0.0 mm
09:45 PM 57.7°F14.3°C 50.5°F10.3°C 77% 5.9 mph NNW9.5 kmh NNW 10.7 mph17.2 kmh 30.18 in1022.0 mb 0.00 in0.0 mm 0.00 in0.0 mm 0.00 in0.0 mm
09:50 PM 57.7°F14.3°C 50.5°F10.3°C 77% 6.3 mph NNW10.1 kmh NNW 11.3 mph18.2 kmh 30.18 in1022.0 mb 0.00 in0.0 mm 0.00 in0.0 mm 0.00 in0.0 mm
09:55 PM 57.5°F14.2°C 50.3°F10.2°C 77% 7.6 mph N12.2 kmh N 11.3 mph18.2 kmh 30.18 in1022.0 mb 0.00 in0.0 mm 0.00 in0.0 mm 0.00 in0.0 mm
10:00 PM 57.5°F14.2°C 50.0°F10.0°C 76% 7.2 mph N11.6 kmh N 10.4 mph16.7 kmh 30.18 in1022.0 mb 0.00 in0.0 mm 0.00 in0.0 mm 0.00 in0.0 mm
10:05 PM 57.3°F14.1°C 49.8°F9.9°C 76% 5.9 mph NNW9.5 kmh NNW 10.4 mph16.7 kmh 30.18 in1022.0 mb 0.00 in0.0 mm 0.00 in0.0 mm 0.00 in0.0 mm
10:10 PM 57.1°F13.9°C 49.6°F9.8°C 76% 6.4 mph NW10.3 kmh NW 10.7 mph17.2 kmh 30.18 in1022.0 mb 0.00 in0.0 mm 0.00 in0.0 mm 0.00 in0.0 mm
10:15 PM 56.9°F13.8°C 49.4°F9.7°C 76% 7.0 mph NW11.3 kmh NW 11.6 mph18.7 kmh 30.18 in1022.0 mb 0.00 in0.0 mm 0.00 in0.0 mm 0.00 in0.0 mm
10:20 PM 56.9°F13.8°C 49.4°F9.7°C 76% 5.4 mph NW8.7 kmh NW 11.6 mph18.7 kmh 30.18 in1022.0 mb 0.00 in0.0 mm 0.00 in0.0 mm 0.00 in0.0 mm
10:25 PM 56.8°F13.8°C 48.9°F9.4°C 75% 5.2 mph NNW8.4 kmh NNW 8.0 mph12.9 kmh 30.18 in1022.0 mb 0.00 in0.0 mm 0.00 in0.0 mm 0.00 in0.0 mm
10:30 PM 56.8°F13.8°C 48.9°F9.4°C 75% 5.6 mph NNW9.0 kmh NNW 8.9 mph14.3 kmh 30.18 in1022.0 mb 0.00 in0.0 mm 0.00 in0.0 mm 0.00 in0.0 mm
10:35 PM 56.6°F13.7°C 48.7°F9.3°C 75% 5.8 mph N9.3 kmh N 8.9 mph14.3 kmh 30.18 in1022.0 mb 0.00 in0.0 mm 0.00 in0.0 mm 0.00 in0.0 mm
10:40 PM 56.4°F13.6°C 48.6°F9.2°C 75% 5.2 mph N8.4 kmh N 7.4 mph11.9 kmh 30.18 in1022.0 mb 0.00 in0.0 mm 0.00 in0.0 mm 0.00 in0.0 mm
10:45 PM 56.4°F13.6°C 48.6°F9.2°C 75% 5.6 mph N9.0 kmh N 7.1 mph11.4 kmh 30.18 in1022.0 mb 0.00 in0.0 mm 0.00 in0.0 mm 0.00 in0.0 mm
10:50 PM 56.2°F13.4°C 48.0°F8.9°C 74% 5.5 mph NNW8.9 kmh NNW 7.7 mph12.4 kmh 30.18 in1022.0 mb 0.00 in0.0 mm 0.00 in0.0 mm 0.00 in0.0 mm
10:55 PM 56.0°F13.3°C 47.9°F8.8°C 74% 5.8 mph NNW9.3 kmh NNW 8.3 mph13.4 kmh 30.18 in1022.0 mb 0.00 in0.0 mm 0.00 in0.0 mm 0.00 in0.0 mm
11:00 PM 56.0°F13.3°C 47.9°F8.8°C 74% 6.6 mph N10.6 kmh N 9.8 mph15.8 kmh 30.18 in1022.0 mb 0.00 in0.0 mm 0.00 in0.0 mm 0.00 in0.0 mm
11:05 PM 55.7°F13.2°C 47.9°F8.8°C 75% 6.3 mph NNW10.1 kmh NNW 9.8 mph15.8 kmh 30.21 in1023.0 mb 0.00 in0.0 mm 0.00 in0.0 mm 0.00 in0.0 mm
11:10 PM 55.5°F13.1°C 47.3°F8.5°C 74% 7.0 mph NNW11.3 kmh NNW 10.7 mph17.2 kmh 30.21 in1023.0 mb 0.00 in0.0 mm 0.00 in0.0 mm 0.00 in0.0 mm
11:15 PM 55.5°F13.1°C 47.3°F8.5°C 74% 7.7 mph N12.4 kmh N 10.7 mph17.2 kmh 30.21 in1023.0 mb 0.00 in0.0 mm 0.00 in0.0 mm 0.00 in0.0 mm
11:20 PM 55.3°F12.9°C 47.2°F8.4°C 74% 7.0 mph N11.3 kmh N 8.6 mph13.8 kmh 30.21 in1023.0 mb 0.00 in0.0 mm 0.00 in0.0 mm 0.00 in0.0 mm
11:25 PM 55.1°F12.8°C 47.0°F8.3°C 74% 6.3 mph NNW10.1 kmh NNW 8.6 mph13.8 kmh 30.21 in1023.0 mb 0.00 in0.0 mm 0.00 in0.0 mm 0.00 in0.0 mm
11:30 PM 55.0°F12.8°C 46.8°F8.2°C 74% 5.5 mph NNW8.9 kmh NNW 8.6 mph13.8 kmh 30.21 in1023.0 mb 0.00 in0.0 mm 0.00 in0.0 mm 0.00 in0.0 mm
11:35 PM 54.8°F12.7°C 46.6°F8.1°C 74% 6.0 mph NW9.7 kmh NW 9.2 mph14.8 kmh 30.21 in1023.0 mb 0.00 in0.0 mm 0.00 in0.0 mm 0.00 in0.0 mm
11:40 PM 54.8°F12.7°C 46.6°F8.1°C 74% 5.7 mph NW9.2 kmh NW 9.2 mph14.8 kmh 30.21 in1023.0 mb 0.00 in0.0 mm 0.00 in0.0 mm 0.00 in0.0 mm
11:45 PM 54.8°F12.7°C 46.6°F8.1°C 74% 5.2 mph NNW8.4 kmh NNW 10.7 mph17.2 kmh 30.21 in1023.0 mb 0.00 in0.0 mm 0.00 in0.0 mm 0.00 in0.0 mm
11:50 PM 54.6°F12.6°C 46.8°F8.2°C 75% 5.4 mph NNW8.7 kmh NNW 10.7 mph17.2 kmh 30.21 in1023.0 mb 0.00 in0.0 mm 0.00 in0.0 mm 0.00 in0.0 mm
11:55 PM 54.6°F12.6°C 46.8°F8.2°C 75% 5.1 mph NNW8.2 kmh NNW 7.1 mph11.4 kmh 30.21 in1023.0 mb 0.00 in0.0 mm 0.00 in0.0 mm 0.00 in0.0 mm